Aviation Digital Data Service (ADDS)

Output produced by TAFs form (1151 UTC 27 May 2017)
found at http://www.aviationweather.gov/adds/tafs/
 
METAR text: ZYTX 271130Z 18004MPS 150V210 CAVOK 24/06 Q1006 NOSIG
Conditions at: ZYTX (SHENYANG/TAOKIAN, CN) observed 1130 UTC 27 May 2017
Temperature: 24.0°C (75°F)
Dewpoint: 6.0°C (43°F) [RH = 31%]
Pressure (altimeter): 29.70 inches Hg (1006.0 mb)
Winds: from the S (180 degrees) at 9 MPH (8 knots; 4.2 m/s)
Visibility: 6 or more miles (10+ km)
Ceiling: ceiling and visibility are OK
Clouds: unknown
Weather: no significant weather observed at this time

Forecast for: ZYTX (SHENYANG/TAOKIAN, CN)
Text: TAF ZYTX 270904Z 2712/2812 20004MPS CAVOK TX30/2806Z TN16/2719Z
Forecast period: 1200 UTC 27 May 2017 to 0400 UTC 28 May 2017
Forecast type: FROM: standard forecast or significant change
Winds: from the SSW (200 degrees) at 9 MPH (8 knots; 4.2 m/s)
Visibility: 6 or more miles (10+ km)
Clouds: not forecast
Weather: no significant weather forecast for this period
Text: BECMG 2804/2805 33006MPS
Forecast period: 0400 to 1200 UTC 28 May 2017
Forecast type: BECOMING: Conditions expected to become as follows by 0500 UTC 28 May 2017
Winds: from the NNW (330 degrees) at 14 MPH (12 knots; 6.2 m/s)
Visibility: 6 or more miles (10+ km)
Weather: no significant weather forecast for this period